M I D A S
Marine Information and Data Acquisition System
Tripno 1034 of the Zeeleeuw from 2006-02-22 07:44:26 to 2006-02-22 12:53:22
Back to CruiseResearch ActivitiesStationsMapUnderway DataData graphs

EquipmentUnitsComment
TimeDGPSUTC
LatitudeDGPSDM.mWGS84
LongitudeDGPSDM.mWGS84
HeadingGyrodeg 
SOGDGPSknotsSpeed over ground
COGDGPSdegCourse over ground
DepthEcho soundermeters200 kHz
Missing or incorrect values are displayed as -999
Navigation data collected by the RV Zeeleeuw from 2006-02-22 07:27:39 to 2006-02-22 13:15:29
Time Latitude Longitude Heading SOG COG Depth
2006-02-22 07:28:46 51°13.615 2°56.034 117.5 3.5 294 -999
2006-02-22 07:29:45 51°13.649 2°55.929 123.3 5.1 300 -999
2006-02-22 07:30:46 51°13.695 2°55.805 122.6 5.4 300 -999
2006-02-22 07:31:44 51°13.719 2°55.713 105.2 1.3 290 4.8
2006-02-22 07:32:44 51°13.719 2°55.714 55.7 1.7 239 6.4
2006-02-22 07:33:44 51°13.729 2°55.704 6.8 2 353 4.9
2006-02-22 07:34:45 51°13.798 2°55.655 340.6 6.1 336 -999
2006-02-22 07:35:46 51°13.909 2°55.572 338.4 7.8 333 -999
2006-02-22 07:36:45 51°14.03 2°55.483 341.6 8.2 336 10.6
2006-02-22 07:37:45 51°14.15 2°55.399 340.6 8.3 334 10.6
2006-02-22 07:38:44 51°14.261 2°55.26 316.4 9 310 -999
2006-02-22 07:39:44 51°14.355 2°55.056 308.2 10 301 -999
2006-02-22 07:40:44 51°14.409 2°54.79 285.9 10.8 284 10.8
2006-02-22 07:41:44 51°14.454 2°54.496 283.8 11.6 278 -999
2006-02-22 07:42:44 51°14.407 2°54.209 243.8 11.4 239 10.7
2006-02-22 07:43:44 51°14.31 2°53.937 244.8 11.9 242 10.6
2006-02-22 07:44:45 51°14.205 2°53.656 244.5 12 239 10.6
2006-02-22 07:45:45 51°14.103 2°53.372 246.5 12.5 240 10.8
2006-02-22 07:46:44 51°14.005 2°53.092 246.2 12 245 11.2
2006-02-22 07:47:44 51°13.902 2°52.806 245.9 12.2 241 11.1
2006-02-22 07:48:44 51°13.797 2°52.523 244.2 12.7 234 11.4
2006-02-22 07:49:44 51°13.695 2°52.232 242.8 13.1 239 11.3
2006-02-22 07:50:44 51°13.59 2°51.948 244.5 12.8 239 11.5
2006-02-22 07:51:44 51°13.487 2°51.67 245.8 12 239 11.8
2006-02-22 07:52:44 51°13.38 2°51.392 246.2 12.5 238 11.8
2006-02-22 07:53:44 51°13.277 2°51.109 246 12.2 244 11.8
2006-02-22 07:54:44 51°13.173 2°50.823 246.2 12.6 244 12
2006-02-22 07:55:44 51°13.068 2°50.538 244.5 12.6 243 12.1
2006-02-22 07:56:44 51°12.963 2°50.254 246.3 12.2 238 12
2006-02-22 07:57:44 51°12.858 2°49.972 244.4 12.5 239 12.2
2006-02-22 07:58:44 51°12.751 2°49.688 247.3 12.4 239 12.2
2006-02-22 07:59:44 51°12.642 2°49.406 246.5 12.7 241 12.2
2006-02-22 08:00:44 51°12.539 2°49.113 249.4 12.6 239 12.3
2006-02-22 08:01:44 51°12.434 2°48.829 246.7 12.4 244 12.2
2006-02-22 08:02:44 51°12.327 2°48.546 243.2 12.8 239 12.4
2006-02-22 08:03:44 51°12.223 2°48.259 247.5 12.4 236 12.3
2006-02-22 08:04:44 51°12.117 2°47.973 245.8 12.7 239 12.4
2006-02-22 08:05:44 51°12.01 2°47.691 245.8 12.6 248 12.2
2006-02-22 08:06:44 51°11.906 2°47.408 243 12.7 242 12.1
2006-02-22 08:07:44 51°11.8 2°47.124 244.3 12.7 237 11.8
2006-02-22 08:08:44 51°11.698 2°46.83 247.9 12.7 240 11.5
2006-02-22 08:09:45 51°11.629 2°46.508 261.7 12.6 254 12.1
2006-02-22 08:10:44 51°11.572 2°46.189 258.7 12.8 255 12.4
2006-02-22 08:11:44 51°11.514 2°45.864 258.8 12.7 253 12.6
2006-02-22 08:12:44 51°11.456 2°45.539 260 12.5 257 12.6
2006-02-22 08:13:45 51°11.397 2°45.206 258.6 12.5 254 12.9
2006-02-22 08:14:44 51°11.334 2°44.89 256.4 12.8 250 12.9
2006-02-22 08:15:44 51°11.275 2°44.562 259.1 12.7 250 13
2006-02-22 08:16:44 51°11.217 2°44.234 257.5 12.7 253 13
2006-02-22 08:17:44 51°11.165 2°43.902 259.7 12.8 255 13
2006-02-22 08:18:45 51°11.111 2°43.564 261.1 13 261 13
2006-02-22 08:19:44 51°11.059 2°43.239 260 13.3 255 13.1
2006-02-22 08:20:44 51°11.011 2°42.903 261.2 13 257 13.1
2006-02-22 08:21:45 51°10.961 2°42.565 262.1 12.5 259 13.1
2006-02-22 08:22:44 51°10.91 2°42.238 260.2 13.1 255 13.2
2006-02-22 08:23:44 51°10.86 2°41.906 260.9 12.7 257 13
2006-02-22 08:24:44 51°10.81 2°41.576 258.1 12.9 258 13.2
2006-02-22 08:25:45 51°10.758 2°41.241 261.4 12.8 259 13
2006-02-22 08:26:44 51°10.718 2°40.911 259.2 12.9 261 13.4
2006-02-22 08:27:44 51°10.667 2°40.579 258.6 12.9 257 13.7
2006-02-22 08:28:44 51°10.609 2°40.241 255 13.5 249 14.1
2006-02-22 08:29:44 51°10.551 2°39.908 258.4 13.1 254 14.6
2006-02-22 08:30:44 51°10.496 2°39.569 257.6 13.4 254 15.3
2006-02-22 08:31:44 51°10.442 2°39.229 254.1 13.1 255 15.6
2006-02-22 08:32:45 51°10.381 2°38.889 258.7 13.1 253 16.6
2006-02-22 08:33:44 51°10.323 2°38.555 254.2 13.4 252 16.5
2006-02-22 08:34:45 51°10.257 2°38.218 254 13.5 252 17.1
2006-02-22 08:35:44 51°10.193 2°37.893 256.2 12.5 247 17.2
2006-02-22 08:36:45 51°10.128 2°37.554 255.5 13.5 258 18
2006-02-22 08:37:44 51°10.066 2°37.22 254.3 13.3 258 18
2006-02-22 08:38:45 51°10.017 2°36.876 264.9 13.1 264 18.3
2006-02-22 08:39:44 51°9.997 2°36.534 266.5 13.2 263 18.2
2006-02-22 08:40:45 51°9.993 2°36.177 280 13.2 281 18.3
2006-02-22 08:41:45 51°10.074 2°35.864 310.1 12.6 308 16.6
2006-02-22 08:42:45 51°10.258 2°35.767 11.1 11.9 8 11.2
2006-02-22 08:43:44 51°10.433 2°35.913 35.8 12.4 31 11.6
2006-02-22 08:44:45 51°10.613 2°36.084 36.5 12.4 33 11.2
2006-02-22 08:45:44 51°10.787 2°36.249 36.4 12.3 32 11.8
2006-02-22 08:46:44 51°10.958 2°36.425 39.9 12.4 36 12.5
2006-02-22 08:47:44 51°11.126 2°36.61 41 12.5 35 12.6
2006-02-22 08:48:45 51°11.299 2°36.801 40.6 12.4 36 13.1
2006-02-22 08:49:45 51°11.467 2°36.986 40.7 11.9 34 13
2006-02-22 08:50:44 51°11.632 2°37.163 39.7 12 33 13.7
2006-02-22 08:51:44 51°11.802 2°37.344 40.6 12.4 33 13.4
2006-02-22 08:52:45 51°11.975 2°37.529 40.3 12.5 36 13.6
2006-02-22 08:53:44 51°12.143 2°37.708 41.2 12.3 34 13.4
2006-02-22 08:54:45 51°12.315 2°37.892 40.6 12.2 34 13.3
2006-02-22 08:55:44 51°12.482 2°38.069 39.9 12 33 13.4
2006-02-22 08:56:44 51°12.652 2°38.247 40.7 11.9 32 13
2006-02-22 08:57:45 51°12.821 2°38.425 40.2 12.2 34 13.6
2006-02-22 08:58:44 51°12.986 2°38.598 40 11.9 33 13.6
2006-02-22 08:59:44 51°13.153 2°38.773 39.9 11.8 34 12.2
2006-02-22 09:00:45 51°13.338 2°38.89 26.9 11.9 18 13.2
2006-02-22 09:01:44 51°13.531 2°38.979 18.5 12.3 7 13.8
2006-02-22 09:02:44 51°13.74 2°38.957 0.2 12.8 351 14.8
2006-02-22 09:03:44 51°13.944 2°38.912 -999 12.4 352 13.4
2006-02-22 09:04:44 51°14.126 2°38.775 324.6 12.8 315 12.9
2006-02-22 09:05:45 51°14.211 2°38.453 289.1 13.3 284 17.1
2006-02-22 09:06:44 51°14.207 2°38.117 255.5 13.5 251 19.1
2006-02-22 09:07:45 51°14.13 2°37.779 250.7 13.3 252 19.7
2006-02-22 09:08:44 51°14.051 2°37.452 250.4 13.8 249 19.6
2006-02-22 09:09:44 51°13.968 2°37.126 251.3 13.7 247 19.6
2006-02-22 09:10:44 51°13.885 2°36.797 250.2 13.4 248 19.6
2006-02-22 09:11:44 51°13.794 2°36.478 247.1 12.9 241 19.9
2006-02-22 09:12:45 51°13.698 2°36.154 248 13.4 246 19.3
2006-02-22 09:13:45 51°13.602 2°35.829 246.6 14 251 18.1
2006-02-22 09:14:45 51°13.507 2°35.508 244.8 13.7 245 17.6
2006-02-22 09:15:45 51°13.411 2°35.186 246.8 14.1 241 15.4
2006-02-22 09:16:45 51°13.316 2°34.863 248.4 13.3 245 16.6
2006-02-22 09:17:45 51°13.222 2°34.54 247.6 14.1 247 15.7
2006-02-22 09:18:44 51°13.133 2°34.225 249.8 13 243 15.3
2006-02-22 09:19:45 51°13.043 2°33.893 251.1 13.4 252 13.9
2006-02-22 09:20:45 51°12.951 2°33.573 250.3 13.2 249 14.8
2006-02-22 09:21:44 51°12.857 2°33.26 247.4 13.4 248 16
2006-02-22 09:22:44 51°12.767 2°32.945 250.5 12.7 245 17.8
2006-02-22 09:23:44 51°12.671 2°32.631 248.8 13.2 248 19.5
2006-02-22 09:24:44 51°12.578 2°32.311 248 13.4 246 22.4
2006-02-22 09:25:45 51°12.48 2°31.988 247.2 13 241 22.2
2006-02-22 09:26:45 51°12.387 2°31.665 248.5 13.1 245 22.2
2006-02-22 09:27:44 51°12.293 2°31.35 248.3 12.7 241 22.7
2006-02-22 09:28:44 51°12.2 2°31.023 250.4 12.9 247 22
2006-02-22 09:29:44 51°12.103 2°30.696 244.7 13.4 246 22.3
2006-02-22 09:30:44 51°12.011 2°30.37 248.5 14 247 22.1
2006-02-22 09:31:44 51°11.921 2°30.042 253.2 13.8 242 22.2
2006-02-22 09:32:44 51°11.832 2°29.717 249.1 13.1 248 22.9
2006-02-22 09:33:45 51°11.737 2°29.38 246.8 13.1 243 22.6
2006-02-22 09:34:44 51°11.644 2°29.058 251.2 13.8 248 22.9
2006-02-22 09:35:44 51°11.55 2°28.727 250.1 13.6 245 23.4
2006-02-22 09:36:44 51°11.466 2°28.395 253.9 13.5 255 21.8
2006-02-22 09:37:45 51°11.386 2°28.043 255.3 13.4 245 22.3
2006-02-22 09:38:45 51°11.318 2°27.697 260.2 13.4 255 22.2
2006-02-22 09:39:45 51°11.274 2°27.337 265.3 14 263 22.6
2006-02-22 09:40:45 51°11.238 2°26.977 263.9 13.4 263 20.6
2006-02-22 09:41:44 51°11.197 2°26.627 264.1 13.4 262 19.2
2006-02-22 09:42:45 51°11.152 2°26.266 264.7 13.7 262 16.8
2006-02-22 09:43:44 51°11.113 2°25.916 261.2 13.7 260 14.5
2006-02-22 09:44:44 51°11.096 2°25.56 278.8 13.9 279 11.9
2006-02-22 09:45:45 51°11.201 2°25.248 316.8 13.2 309 21
2006-02-22 09:46:44 51°11.387 2°25.13 2.3 12.2 355 23.6
2006-02-22 09:47:44 51°11.575 2°25.203 33.6 11.8 26 25.9
2006-02-22 09:48:44 51°11.718 2°25.409 52.1 11.9 45 24.5
2006-02-22 09:49:45 51°11.86 2°25.62 48.1 11.7 42 24.8
2006-02-22 09:50:45 51°12.008 2°25.814 47.5 11.4 39 24.2
2006-02-22 09:51:44 51°12.159 2°26.001 45 11.9 38 24.9
2006-02-22 09:52:44 51°12.317 2°26.191 44.3 12.1 36 25.3
2006-02-22 09:53:45 51°12.476 2°26.383 44.5 11.5 37 24.7
2006-02-22 09:54:45 51°12.629 2°26.567 45.8 11.6 37 24.2
2006-02-22 09:55:45 51°12.778 2°26.76 46.8 11.7 41 24.1
2006-02-22 09:56:44 51°12.925 2°26.945 45.1 11.3 38 24
2006-02-22 09:57:45 51°13.076 2°27.138 45.6 11 43 29.3
2006-02-22 09:58:44 51°13.212 2°27.314 44.7 11.1 37 24.6
2006-02-22 09:59:45 51°13.363 2°27.51 46.4 11.6 41 24
2006-02-22 10:00:44 51°13.51 2°27.7 45 11.7 39 24.6
2006-02-22 10:01:45 51°13.66 2°27.896 45.7 10 40 30
2006-02-22 10:02:45 51°13.803 2°28.084 45.3 11.7 39 24.7
2006-02-22 10:03:45 51°13.945 2°28.275 45.6 11.2 41 25.3
2006-02-22 10:04:45 51°14.094 2°28.468 45.6 11.8 40 25.7
2006-02-22 10:05:44 51°14.239 2°28.66 45.4 11.5 40 26
2006-02-22 10:06:45 51°14.39 2°28.857 45 11.8 39 26.7
2006-02-22 10:07:45 51°14.536 2°29.048 45.2 10.9 40 26.8
2006-02-22 10:08:45 51°14.682 2°29.233 44.9 11 39 27.1
2006-02-22 10:09:45 51°14.83 2°29.424 45.7 11.9 40 27.1
2006-02-22 10:10:45 51°14.975 2°29.616 45 11.5 40 27
2006-02-22 10:11:44 51°15.12 2°29.804 44.5 11.3 37 26.7
2006-02-22 10:12:45 51°15.264 2°29.994 45 11.7 39 27.4
2006-02-22 10:13:45 51°15.412 2°30.187 45.6 11.5 39 27.1
2006-02-22 10:14:44 51°15.56 2°30.38 45.7 11.5 41 26.8
2006-02-22 10:15:45 51°15.709 2°30.576 45.4 11.7 38 27.3
2006-02-22 10:16:44 51°15.857 2°30.771 45.6 12 40 27.9
2006-02-22 10:17:45 51°16.009 2°30.972 45.7 11.7 40 28.1
2006-02-22 10:18:45 51°16.158 2°31.164 44.5 11.7 38 28.2
2006-02-22 10:19:45 51°16.314 2°31.359 46.1 11.9 39 27.6
2006-02-22 10:20:44 51°16.461 2°31.544 45.2 11.4 38 28
2006-02-22 10:21:45 51°16.608 2°31.731 45.8 11.1 40 26.6
2006-02-22 10:22:45 51°16.757 2°31.926 45.9 11.7 40 25.9
2006-02-22 10:23:44 51°16.9 2°32.116 46.4 11 41 26.3
2006-02-22 10:24:45 51°17.049 2°32.311 45 11.4 39 26
2006-02-22 10:25:44 51°17.195 2°32.502 46.5 11.3 40 25.8
2006-02-22 10:26:45 51°17.345 2°32.695 45.2 11.3 38 27.3
2006-02-22 10:27:44 51°17.487 2°32.878 45.2 10.8 40 26.6
2006-02-22 10:28:45 51°17.632 2°33.068 45.1 11.1 40 25.4
2006-02-22 10:29:45 51°17.779 2°33.256 45.7 11.4 40 26
2006-02-22 10:30:45 51°17.925 2°33.44 45.1 11.3 38 25.6
2006-02-22 10:31:45 51°18.075 2°33.626 45.1 11.6 38 22.7
2006-02-22 10:32:44 51°18.217 2°33.809 45.4 11.4 40 25
2006-02-22 10:33:45 51°18.37 2°34.005 45.6 11.7 40 23.2
2006-02-22 10:34:44 51°18.515 2°34.192 45.4 10.5 38 -999
2006-02-22 10:35:45 51°18.666 2°34.383 44.7 11.5 35 20.9
2006-02-22 10:36:45 51°18.81 2°34.57 45.6 11.3 39 18.3
2006-02-22 10:37:44 51°18.952 2°34.746 45.2 11.6 37 19.1
2006-02-22 10:38:44 51°19.098 2°34.934 44.8 11 39 19
2006-02-22 10:39:44 51°19.247 2°35.117 43.8 11.1 36 19.6
2006-02-22 10:40:45 51°19.392 2°35.302 45.2 10.4 40 18.2
2006-02-22 10:41:44 51°19.529 2°35.474 46 11.2 39 19.2
2006-02-22 10:42:45 51°19.677 2°35.66 45.2 11.8 38 18.2
2006-02-22 10:43:45 51°19.821 2°35.837 44.8 10.8 38 19.6
2006-02-22 10:44:44 51°19.969 2°36.019 45 11.6 38 20.3
2006-02-22 10:45:44 51°20.102 2°36.228 53.9 11.1 47 20.2
2006-02-22 10:46:44 51°20.227 2°36.449 53.8 11.1 49 20.8
2006-02-22 10:47:45 51°20.356 2°36.672 54.4 11.4 47 20.4
2006-02-22 10:48:45 51°20.486 2°36.884 50.1 10.9 41 21.7
2006-02-22 10:49:45 51°20.63 2°37.077 44 11.5 37 21.9
2006-02-22 10:50:44 51°20.775 2°37.255 43.6 10.9 36 22.6
2006-02-22 10:51:45 51°20.942 2°37.405 34.5 11.6 27 24.5
2006-02-22 10:52:44 51°21.113 2°37.535 34.1 11.4 26 24.3
2006-02-22 10:53:45 51°21.299 2°37.647 26.2 11.8 18 24.2
2006-02-22 10:54:44 51°21.483 2°37.728 24.1 11.9 16 25.2
2006-02-22 10:55:44 51°21.673 2°37.811 22.5 11.8 12 25.4
2006-02-22 10:56:45 51°21.871 2°37.842 13 12 5 29
2006-02-22 10:57:45 51°22.062 2°37.865 13.9 10.4 3 -999
2006-02-22 10:58:45 51°22.248 2°37.885 13.9 11.9 4 29.4
2006-02-22 10:59:45 51°22.432 2°37.905 13.7 10.8 2 29.4
2006-02-22 11:00:45 51°22.624 2°37.932 16.2 11.9 6 30.1
2006-02-22 11:01:44 51°22.811 2°37.953 14.9 10.9 4 28.7
2006-02-22 11:02:44 51°23.003 2°37.995 23.2 11.7 13 27.4
2006-02-22 11:03:45 51°23.189 2°38.089 29 11.4 21 26.6
2006-02-22 11:04:45 51°23.36 2°38.202 33.7 10.6 27 27.2
2006-02-22 11:05:44 51°23.509 2°38.342 47.3 10.9 40 25.8
2006-02-22 11:06:45 51°23.642 2°38.553 52.2 11.3 46 23.1
2006-02-22 11:07:45 51°23.771 2°38.781 55.3 12 49 26.1
2006-02-22 11:08:45 51°23.899 2°39.012 55.6 11.2 50 25.4
2006-02-22 11:09:45 51°24.026 2°39.248 57.9 11.8 51 25.3
2006-02-22 11:10:45 51°24.142 2°39.478 57.1 11.1 48 24.6
2006-02-22 11:11:45 51°24.261 2°39.709 56.6 11.2 50 25.9
2006-02-22 11:12:45 51°24.373 2°39.949 61.4 11.3 56 26
2006-02-22 11:13:45 51°24.486 2°40.2 60.2 11.5 54 24.5
2006-02-22 11:14:45 51°24.596 2°40.448 59.8 11.4 53 25.7
2006-02-22 11:15:45 51°24.708 2°40.693 60.1 11.6 55 22.9
2006-02-22 11:16:45 51°24.811 2°40.923 58.9 10.5 53 24.8
2006-02-22 11:17:45 51°24.923 2°41.163 58.8 11.2 53 23.6
2006-02-22 11:18:45 51°25.03 2°41.402 60.6 11 56 25.8
2006-02-22 11:19:45 51°25.124 2°41.657 70.4 11.4 66 26.3
2006-02-22 11:20:45 51°25.178 2°41.943 82.4 11.4 73 25.3
2006-02-22 11:21:45 51°25.181 2°42.243 103.2 11.4 102 23.3
2006-02-22 11:22:44 51°25.073 2°42.491 132.2 11.7 129 21.8
2006-02-22 11:23:44 51°24.924 2°42.707 136.6 12.3 152 23.4
2006-02-22 11:24:44 51°24.774 2°42.918 135.1 12 144 20.2
2006-02-22 11:25:44 51°24.621 2°43.126 136.9 12.2 139 18.6
2006-02-22 11:26:45 51°24.471 2°43.345 137.6 12.2 139 24.7
2006-02-22 11:27:44 51°24.326 2°43.559 136.4 12.6 138 25.2
2006-02-22 11:28:44 51°24.177 2°43.773 135.5 11.6 131 23.7
2006-02-22 11:29:44 51°24.031 2°43.992 135 11.5 127 26.2
2006-02-22 11:30:45 51°23.878 2°44.209 136 12 134 26.6
2006-02-22 11:31:44 51°23.725 2°44.413 136.3 12.3 139 26.7
2006-02-22 11:32:45 51°23.555 2°44.607 143 12.3 152 26.7
2006-02-22 11:33:44 51°23.378 2°44.764 146 12 154 26
2006-02-22 11:34:44 51°23.197 2°44.922 147.4 12.2 152 24.8
2006-02-22 11:35:45 51°23.013 2°45.087 152.4 13.2 155 25.6
2006-02-22 11:36:44 51°22.832 2°45.243 149.5 12.9 151 24.1
2006-02-22 11:37:45 51°22.644 2°45.398 151.9 12.9 154 25.8
2006-02-22 11:38:44 51°22.46 2°45.547 149.4 12 150 23.4
2006-02-22 11:39:45 51°22.269 2°45.706 150.6 12.9 149 21.1
2006-02-22 11:40:44 51°22.088 2°45.857 146.3 11.9 152 20.1
2006-02-22 11:41:44 51°21.903 2°46.016 147.1 12.3 154 20.9
2006-02-22 11:42:44 51°21.723 2°46.184 148 12.8 153 23.2
2006-02-22 11:43:44 51°21.541 2°46.339 146.2 12.1 154 24.4
2006-02-22 11:44:45 51°21.357 2°46.497 146.4 12 155 25
2006-02-22 11:45:44 51°21.189 2°46.675 143.1 12.3 145 23.3
2006-02-22 11:46:45 51°21.023 2°46.865 141.2 12.5 142 22.4
2006-02-22 11:47:44 51°20.861 2°47.05 141.2 12.4 146 17.1
2006-02-22 11:48:45 51°20.702 2°47.256 135.4 11.9 140 16
2006-02-22 11:49:45 51°20.544 2°47.459 137.8 12.4 145 17.5
2006-02-22 11:50:45 51°20.387 2°47.667 136.6 12.1 134 19.2
2006-02-22 11:51:45 51°20.229 2°47.877 136.7 12.5 141 20.8
2006-02-22 11:52:44 51°20.073 2°48.083 137.5 12.6 140 21.5
2006-02-22 11:53:44 51°19.919 2°48.296 130.6 11.8 131 21.2
2006-02-22 11:54:44 51°19.791 2°48.484 126.3 6.7 134 20.9
2006-02-22 11:55:45 51°19.741 2°48.55 116.8 3.1 165 20
2006-02-22 11:56:45 51°19.708 2°48.551 119 1.3 183 19.9
2006-02-22 11:57:44 51°19.683 2°48.53 120.5 2.4 217 19.3
2006-02-22 11:58:45 51°19.66 2°48.489 134.6 1.8 233 19.8
2006-02-22 11:59:44 51°19.643 2°48.442 155.2 2.1 241 19.6
2006-02-22 12:00:45 51°19.624 2°48.391 166.4 2.2 242 19.7
2006-02-22 12:01:44 51°19.59 2°48.353 169.1 3.7 192 19.6
2006-02-22 12:02:45 51°19.5 2°48.437 128.9 8 138 18.5
2006-02-22 12:03:44 51°19.381 2°48.63 131.3 11.8 139 16.6
2006-02-22 12:04:45 51°19.244 2°48.854 128.2 11.2 130 14.8
2006-02-22 12:05:44 51°19.113 2°49.073 128 11.4 132 11.5
2006-02-22 12:06:45 51°18.976 2°49.296 128.4 11.3 128 11.3
2006-02-22 12:07:45 51°18.847 2°49.517 128.7 11.4 130 9.8
2006-02-22 12:08:45 51°18.715 2°49.739 131.7 11.8 134 10.8
2006-02-22 12:09:45 51°18.582 2°49.963 128 11.1 135 12.2
2006-02-22 12:10:45 51°18.452 2°50.192 127.5 11.7 135 13.2
2006-02-22 12:11:45 51°18.323 2°50.419 126.7 11.7 130 13.4
2006-02-22 12:12:44 51°18.195 2°50.644 127.1 11.8 133 12.6
2006-02-22 12:13:45 51°18.061 2°50.877 127.9 11.7 139 11.7
2006-02-22 12:14:45 51°17.929 2°51.103 129.7 11.3 140 10.6
2006-02-22 12:15:45 51°17.795 2°51.328 125.9 12.3 126 9.3
2006-02-22 12:16:45 51°17.66 2°51.551 129.3 11.4 136 8.9
2006-02-22 12:17:44 51°17.525 2°51.77 131 12.3 137 9.1
2006-02-22 12:18:45 51°17.386 2°52.003 129.2 12.1 134 9.7
2006-02-22 12:19:44 51°17.224 2°52.19 148.7 13.6 150 9.4
2006-02-22 12:20:45 51°17.034 2°52.331 147.5 12.5 155 9
2006-02-22 12:21:45 51°16.842 2°52.466 153.3 12.7 156 9.1
2006-02-22 12:22:45 51°16.651 2°52.6 148.7 11.9 157 10
2006-02-22 12:23:45 51°16.459 2°52.735 153.1 12 156 11
2006-02-22 12:24:45 51°16.265 2°52.859 156.6 12.7 159 11
2006-02-22 12:25:45 51°16.073 2°52.985 149.3 12.6 155 10.9
2006-02-22 12:26:45 51°15.88 2°53.106 154.7 13.1 158 10.4
2006-02-22 12:27:45 51°15.691 2°53.231 149.6 12.4 155 10.1
2006-02-22 12:28:45 51°15.514 2°53.367 145.5 10.2 149 9.6
2006-02-22 12:29:44 51°15.429 2°53.505 126.9 6.8 135 9.4
2006-02-22 12:30:44 51°15.358 2°53.602 124.9 4.6 134 9.3
2006-02-22 12:31:45 51°15.308 2°53.675 112.5 3.5 129 9
2006-02-22 12:32:45 51°15.271 2°53.732 110.5 2.5 129 8.9
2006-02-22 12:33:44 51°15.245 2°53.774 98.6 2.2 140 9.1
2006-02-22 12:34:45 51°15.223 2°53.812 95.7 1.7 129 8.9
2006-02-22 12:35:44 51°15.199 2°53.861 100.5 2.7 119 8.8
2006-02-22 12:36:45 51°15.173 2°53.934 98.4 3.3 121 8.5
2006-02-22 12:37:44 51°15.148 2°54.007 100.2 3 129 8.3
2006-02-22 12:38:45 51°15.121 2°54.056 103.5 2.1 129 8.5
2006-02-22 12:39:44 51°15.097 2°54.09 103.5 2 148 8.5
2006-02-22 12:40:45 51°15.074 2°54.116 99.6 1.6 146 8.1
2006-02-22 12:41:45 51°15.054 2°54.142 100.2 2.6 162 7.9
2006-02-22 12:42:45 51°15.032 2°54.165 105.2 1.5 141 8.3
2006-02-22 12:43:45 51°15.008 2°54.19 100.9 1.6 145 7.9
2006-02-22 12:44:45 51°14.985 2°54.211 105.8 1.6 147 7.8
2006-02-22 12:45:45 51°14.96 2°54.232 103.9 1.8 154 8.1
2006-02-22 12:46:44 51°14.938 2°54.254 100.8 1.6 149 8.2
2006-02-22 12:47:45 51°14.916 2°54.276 110.4 1.4 136 8.2
2006-02-22 12:48:45 51°14.881 2°54.301 133.7 3.2 144 8.5
2006-02-22 12:49:45 51°14.797 2°54.4 135 8.3 143 8.5
2006-02-22 12:50:45 51°14.668 2°54.547 139.2 9.7 145 8.9
2006-02-22 12:51:44 51°14.533 2°54.718 130.7 10.8 136 8.7
2006-02-22 12:52:44 51°14.418 2°54.925 122.1 10.8 123 8.8
2006-02-22 12:53:45 51°14.318 2°55.151 126.5 10 125 -999
2006-02-22 12:54:45 51°14.219 2°55.317 142.8 7.6 142 -999
2006-02-22 12:55:45 51°14.122 2°55.404 154.8 6.3 153 -999
2006-02-22 12:56:45 51°14.026 2°55.478 157 6.5 155 -999
2006-02-22 12:57:45 51°13.936 2°55.542 157 5.6 156 -999
2006-02-22 12:58:45 51°13.853 2°55.605 153.4 5.4 151 -999
2006-02-22 12:59:45 51°13.779 2°55.687 141.3 5.4 138 -999
2006-02-22 13:00:45 51°13.716 2°55.789 135.6 5.5 134 -999
2006-02-22 13:01:45 51°13.664 2°55.898 122.6 5.1 120 -999
2006-02-22 13:02:45 51°13.629 2°56.001 123.2 3.7 120 -999
2006-02-22 13:03:44 51°13.608 2°56.067 121.3 2.2 118 6.6
2006-02-22 13:04:44 51°13.602 2°56.084 118.7 0.5 127 6.1
2006-02-22 13:05:49 51°13.598 2°56.093 112.8 0.3 131 -999
2006-02-22 13:06:49 51°13.597 2°56.095 114.5 0.1 3 -999
2006-02-22 13:07:49 51°13.598 2°56.095 126.6 -999 271 -999
2006-02-22 13:08:49 51°13.598 2°56.094 128.5 -999 99 -999
2006-02-22 13:09:49 51°13.598 2°56.095 126.7 -999 253 -999
2006-02-22 13:10:49 51°13.598 2°56.094 126.8 -999 155 -999
2006-02-22 13:11:49 51°13.598 2°56.094 126.7 -999 199 -999
2006-02-22 13:12:49 51°13.598 2°56.094 126.7 -999 357 -999
2006-02-22 13:13:49 51°13.598 2°56.094 126.8 -999 332 -999
2006-02-22 13:14:49 51°13.598 2°56.094 126.1 -999 193 -999